Time;durP1;ratioP1;P1;durP2;ratioP2;P2;SDS_P1;SDS_P2;PMS_P1;PMS_P2;Temp;Humidity;BMP_temperature;BMP_pressure;BME280_temperature;BME280_humidity;BME280_pressure;Samples;Min_cycle;Max_cycle;Signal;HPM_P1;HPM_P2
2023/08/01 00:00:59;;;;;;;;;;;18.20;99.90;;;18.45;100.00;99387.28;5201770;28;20045;-52
2023/08/01 00:03:31;;;;;;;0.82;0.63;;;18.20;99.90;;;18.47;100.00;99380.25;5199833;28;20393;-53
2023/08/01 00:06:03;;;;;;;0.70;0.52;;;18.20;99.90;;;18.46;100.00;99372.38;5200102;28;20050;-52
2023/08/01 00:08:36;;;;;;;0.70;0.38;;;18.20;99.90;;;18.44;100.00;99362.69;5199389;28;20513;-52
2023/08/01 00:11:09;;;;;;;1.23;0.63;;;18.20;99.90;;;18.45;100.00;99366.19;5196321;28;20052;-52
2023/08/01 00:13:43;;;;;;;0.52;0.40;;;18.20;99.90;;;18.45;100.00;99360.91;5200045;28;20064;-53
2023/08/01 00:16:16;;;;;;;0.45;0.32;;;18.20;99.90;;;18.45;100.00;99355.63;5199992;28;20054;-49
2023/08/01 00:18:48;;;;;;;0.77;0.50;;;18.30;99.90;;;18.44;100.00;99343.34;5199073;28;20506;-49
2023/08/01 00:21:21;;;;;;;0.45;0.40;;;18.20;99.90;;;18.43;100.00;99344.25;5199994;28;20057;-49
2023/08/01 00:23:53;;;;;;;0.43;0.35;;;18.20;99.90;;;18.42;100.00;99353.06;5199490;28;20061;-49
2023/08/01 00:26:25;;;;;;;1.10;0.40;;;18.20;99.90;;;18.44;100.00;99343.34;5199962;28;20398;-50
2023/08/01 00:28:59;;;;;;;0.73;0.50;;;18.20;99.90;;;18.42;100.00;99339.88;5198669;28;20052;-50
2023/08/01 00:31:31;;;;;;;0.22;0.22;;;18.20;99.90;;;18.42;100.00;99335.47;5199290;28;20045;-50
2023/08/01 00:34:04;;;;;;;0.52;0.50;;;18.20;99.90;;;18.44;100.00;99327.50;5191962;28;20049;-49
2023/08/01 00:36:36;;;;;;;0.50;0.40;;;18.20;99.90;;;18.45;100.00;99334.53;5199319;28;20435;-49
2023/08/01 00:39:09;;;;;;;0.93;0.50;;;18.20;99.90;;;18.47;100.00;99348.59;5199058;28;20617;-48
2023/08/01 00:41:41;;;;;;;1.08;0.60;;;18.20;99.90;;;18.49;100.00;99346.75;5199649;28;20057;-49
2023/08/01 00:44:18;;;;;;;0.63;0.52;;;18.20;99.90;;;18.52;100.00;99343.19;5199848;28;20084;-50
2023/08/01 00:46:51;;;;;;;1.60;0.63;;;18.20;99.90;;;18.48;100.00;99334.47;5199292;28;20071;-49
2023/08/01 00:49:23;;;;;;;1.17;0.40;;;18.30;99.90;;;18.49;100.00;99325.66;5198919;28;20050;-48
2023/08/01 00:51:56;;;;;;;0.98;0.60;;;18.20;99.90;;;18.48;100.00;99328.34;5198781;28;20057;-49
2023/08/01 00:54:36;;;;;;;0.70;0.43;;;18.20;99.90;;;18.48;100.00;99323.94;5199408;28;20057;-49
2023/08/01 00:57:09;;;;;;;0.50;0.50;;;18.30;99.90;;;18.51;100.00;99326.50;5192977;28;20064;-48
2023/08/01 00:59:43;;;;;;;0.80;0.63;;;18.30;99.90;;;18.52;100.00;99324.72;5198492;28;20049;-49
2023/08/01 01:02:19;;;;;;;1.00;0.55;;;18.30;99.90;;;18.52;100.00;99319.44;5198556;28;20059;-49
2023/08/01 01:04:51;;;;;;;1.30;0.65;;;18.30;99.90;;;18.52;100.00;99308.88;5198917;28;20437;-50
2023/08/01 01:07:26;;;;;;;1.30;0.70;;;18.30;99.90;;;18.53;100.00;99306.25;5199283;28;20049;-49
2023/08/01 01:09:59;;;;;;;0.73;0.50;;;18.30;99.90;;;18.54;100.00;99291.28;5202781;28;20045;-48
2023/08/01 01:12:35;;;;;;;0.43;0.43;;;18.30;99.90;;;18.53;100.00;99282.50;5202575;28;20515;-49
2023/08/01 01:15:10;;;;;;;0.57;0.43;;;18.30;99.90;;;18.52;100.00;99275.50;5194757;28;20048;-50
2023/08/01 01:17:42;;;;;;;1.08;0.43;;;18.20;99.90;;;18.50;100.00;99277.25;5201724;28;20045;-49
2023/08/01 01:20:15;;;;;;;0.75;0.40;;;18.30;99.90;;;18.51;100.00;99271.09;5202835;28;20041;-49
2023/08/01 01:22:50;;;;;;;0.40;0.30;;;18.30;99.90;;;18.55;100.00;99277.19;5202175;28;20049;-49
2023/08/01 01:25:23;;;;;;;;;;;18.30;99.90;;;18.54;100.00;99262.25;5203289;28;20411;-49
2023/08/01 01:27:55;;;;;;;0.70;0.40;;;18.30;99.90;;;18.54;100.00;99244.66;5201903;28;21921;-49
2023/08/01 01:30:33;;;;;;;0.57;0.50;;;18.30;99.90;;;18.54;100.00;99255.19;5202708;28;20038;-50
2023/08/01 01:33:07;;;;;;;0.60;0.60;;;18.30;99.90;;;18.56;100.00;99263.06;5202628;28;20069;-49
2023/08/01 01:35:39;;;;;;;0.40;0.40;;;18.30;99.90;;;18.55;100.00;99256.94;5202641;28;20045;-48
2023/08/01 01:38:14;;;;;;;0.65;0.30;;;18.30;99.90;;;18.57;100.00;99255.13;5202131;28;20041;-49
2023/08/01 01:40:46;;;;;;;0.95;0.52;;;18.30;99.90;;;18.58;100.00;99245.44;5202165;28;20049;-48
2023/08/01 01:43:19;;;;;;;0.85;0.45;;;18.30;99.90;;;18.58;100.00;99245.44;5204071;28;20116;-48
2023/08/01 01:45:51;;;;;;;0.35;0.30;;;18.30;99.90;;;18.59;100.00;99257.75;5202123;28;20053;-49
2023/08/01 01:48:26;;;;;;;1.38;0.60;;;18.30;99.90;;;18.60;100.00;99252.44;5201911;28;20045;-49
2023/08/01 01:50:59;;;;;;;0.52;0.45;;;18.30;99.90;;;18.62;100.00;99258.53;5202083;28;20075;-49
2023/08/01 01:53:33;;;;;;;0.57;0.40;;;18.30;99.90;;;18.62;100.00;99263.81;5202272;28;20041;-50
2023/08/01 01:56:05;;;;;;;0.73;0.43;;;18.30;99.90;;;18.63;100.00;99256.75;5201793;28;20525;-50
2023/08/01 01:58:41;;;;;;;0.85;0.43;;;18.30;99.90;;;18.64;100.00;99253.22;5201625;28;20045;-50
2023/08/01 02:01:13;;;;;;;0.45;0.40;;;18.30;99.90;;;18.64;100.00;99256.72;5194960;28;20091;-49
2023/08/01 02:03:46;;;;;;;0.70;0.68;;;18.30;99.90;;;18.64;100.00;99258.50;5202125;28;20047;-49
2023/08/01 02:06:19;;;;;;;0.75;0.35;;;18.30;99.90;;;18.64;100.00;99266.41;5201985;28;20049;-49
2023/08/01 02:08:53;;;;;;;0.35;0.32;;;18.30;99.90;;;18.65;100.00;99274.31;5201004;28;20059;-49
2023/08/01 02:11:26;;;;;;;0.68;0.40;;;18.40;99.90;;;18.64;100.00;99269.91;5202000;28;20056;-49
2023/08/01 02:13:58;;;;;;;0.30;0.30;;;18.30;99.90;;;18.59;100.00;99273.59;5201599;28;20046;-50
2023/08/01 02:16:30;;;;;;;0.50;0.32;;;18.30;99.90;;;18.55;100.00;99261.34;5202293;28;20050;-49
2023/08/01 02:19:03;;;;;;;1.65;0.45;;;18.30;99.90;;;18.55;100.00;99264.84;5200571;28;20493;-49
2023/08/01 02:21:39;;;;;;;1.80;0.70;;;18.30;99.90;;;18.51;100.00;99260.53;5201453;28;20133;-49
2023/08/01 02:24:13;;;;;;;1.00;1.00;;;18.30;99.90;;;18.48;100.00;99255.34;5194001;28;20045;-50
2023/08/01 02:26:49;;;;;;;0.98;0.98;;;18.20;99.90;;;18.45;100.00;99268.56;5201478;28;20413;-48
2023/08/01 02:29:22;;;;;;;0.93;0.90;;;18.20;99.90;;;18.40;100.00;99275.75;5201503;28;20056;-49
2023/08/01 02:31:54;;;;;;;1.58;1.05;;;18.10;99.90;;;18.33;100.00;99260.94;5201280;28;20049;-49
2023/08/01 02:34:27;;;;;;;1.23;0.80;;;18.10;99.90;;;18.30;100.00;99267.13;5201618;28;20053;-49
2023/08/01 02:36:59;;;;;;;0.90;0.52;;;18.00;99.90;;;18.28;100.00;99268.09;5200699;28;20053;-50
2023/08/01 02:39:33;;;;;;;0.65;0.52;;;18.00;99.90;;;18.25;100.00;99262.84;5201202;28;20055;-49
2023/08/01 02:42:05;;;;;;;0.60;0.60;;;18.00;99.90;;;18.25;100.00;99262.84;5201032;28;20503;-49
2023/08/01 02:44:41;;;;;;;1.20;0.93;;;17.90;99.90;;;18.16;100.00;99267.44;5201171;28;20045;-49
2023/08/01 02:47:13;;;;;;;2.03;1.50;;;17.90;99.90;;;18.13;100.00;99271.91;5193283;28;20041;-48
2023/08/01 02:49:45;;;;;;;2.20;2.00;;;17.90;99.90;;;18.07;100.00;99270.25;5200653;28;20044;-48
2023/08/01 02:52:17;;;;;;;3.13;2.30;;;17.90;99.90;;;18.05;100.00;99274.66;5201092;28;20051;-49
2023/08/01 02:54:51;;;;;;;3.15;2.72;;;17.80;99.90;;;18.02;100.00;99271.25;5201115;28;20049;-50
2023/08/01 02:57:24;;;;;;;3.33;3.03;;;17.80;99.90;;;17.98;100.00;99275.69;5200948;28;20088;-50
2023/08/01 02:59:57;;;;;;;3.22;2.92;;;17.70;99.90;;;17.97;100.00;99284.50;5200660;28;20132;-49
2023/08/01 03:02:32;;;;;;;3.65;2.85;;;17.70;99.90;;;17.94;100.00;99284.56;5202339;28;20102;-49
2023/08/01 03:05:07;;;;;;;4.47;2.92;;;17.70;99.90;;;17.86;100.00;99281.19;5199998;28;20041;-49
2023/08/01 03:07:39;;;;;;;3.70;3.08;;;17.60;99.90;;;17.79;100.00;99284.84;5200207;28;20033;-49
2023/08/01 03:10:13;;;;;;;3.75;3.33;;;17.60;99.90;;;17.77;100.00;99286.66;5200635;28;20055;-48
2023/08/01 03:12:49;;;;;;;3.70;3.25;;;17.50;99.90;;;17.76;100.00;99282.28;5200351;28;20053;-50
2023/08/01 03:15:21;;;;;;;3.78;2.78;;;17.50;99.90;;;17.78;100.00;99281.34;5201147;28;20041;-49
2023/08/01 03:17:54;;;;;;;2.70;2.50;;;17.50;99.90;;;17.80;100.00;99290.09;5199777;28;20053;-50
2023/08/01 03:20:26;;;;;;;2.22;1.73;;;17.50;99.90;;;17.79;100.00;99295.38;5200689;28;20064;-50
2023/08/01 03:22:58;;;;;;;1.60;1.50;;;17.50;99.90;;;17.78;100.00;99293.66;5202078;28;20045;-50
2023/08/01 03:25:32;;;;;;;1.20;1.10;;;17.50;99.90;;;17.75;100.00;99309.53;5200739;28;20410;-49
2023/08/01 03:28:06;;;;;;;1.55;1.13;;;17.50;99.90;;;17.74;100.00;99307.81;5199436;28;20060;-49
2023/08/01 03:30:38;;;;;;;1.48;0.82;;;17.50;99.90;;;17.71;100.00;99310.44;5200451;28;20517;-50
2023/08/01 03:33:10;;;;;;;1.75;0.77;;;17.50;99.90;;;17.70;100.00;99309.56;5200073;28;20053;-49
2023/08/01 03:35:43;;;;;;;1.08;0.98;;;17.40;99.90;;;17.69;100.00;99299.06;5200302;28;20033;-50
2023/08/01 03:38:15;;;;;;;0.93;0.82;;;17.50;99.90;;;17.68;100.00;99313.13;5199461;28;20040;-50
2023/08/01 03:40:52;;;;;;;0.82;0.73;;;17.40;99.90;;;17.68;100.00;99313.13;5199973;28;20056;-50
2023/08/01 03:43:24;;;;;;;1.58;0.80;;;17.40;99.90;;;17.64;100.00;99313.19;5200646;28;20045;-50
2023/08/01 03:45:57;;;;;;;1.58;0.98;;;17.40;99.90;;;17.63;100.00;99315.84;5200134;28;20103;-49
2023/08/01 03:48:29;;;;;;;2.08;0.93;;;17.40;99.90;;;17.59;100.00;99325.56;5199607;28;20049;-49
2023/08/01 03:51:03;;;;;;;2.20;0.82;;;17.40;99.90;;;17.56;100.00;99322.13;5199868;28;20422;-49
2023/08/01 03:53:36;;;;;;;1.90;1.10;;;17.30;99.90;;;17.52;100.00;99318.66;5200441;28;20083;-50
2023/08/01 03:56:09;;;;;;;1.42;0.90;;;17.30;99.90;;;17.51;100.00;99327.44;5199904;28;20457;-49
2023/08/01 03:58:45;;;;;;;1.23;1.00;;;17.30;99.90;;;17.51;100.00;99327.44;5199454;28;20526;-50
2023/08/01 04:01:17;;;;;;;1.92;1.10;;;17.30;99.90;;;17.52;100.00;99329.19;5184054;28;20052;-49
2023/08/01 04:03:50;;;;;;;1.48;0.98;;;17.30;99.90;;;17.49;100.00;99329.25;5199750;28;20046;-51
2023/08/01 04:06:22;;;;;;;3.78;1.90;;;17.30;99.90;;;17.47;100.00;99327.53;5200222;28;20526;-49
2023/08/01 04:08:59;;;;;;;2.85;1.77;;;17.30;99.90;;;17.42;100.00;99340.78;5199165;28;20289;-49
2023/08/01 04:11:33;;;;;;;3.10;2.15;;;17.20;99.90;;;17.41;100.00;99338.16;5199957;28;20055;-50
2023/08/01 04:14:05;;;;;;;2.33;2.13;;;17.20;99.90;;;17.39;100.00;99340.81;5199434;28;20049;-50
2023/08/01 04:16:41;;;;;;;3.88;2.83;;;17.20;99.90;;;17.38;100.00;99341.72;5200086;28;20053;-49
2023/08/01 04:19:14;;;;;;;5.80;3.38;;;17.20;99.90;;;17.36;100.00;99359.31;5199403;28;20037;-49
2023/08/01 04:21:46;;;;;;;4.20;3.40;;;17.10;99.90;;;17.33;100.00;99359.34;5200094;28;20427;-49
2023/08/01 04:24:19;;;;;;;6.13;2.72;;;17.10;99.90;;;17.29;100.00;99358.53;5190521;28;20045;-49
2023/08/01 04:26:56;;;;;;;3.30;2.42;;;17.10;99.90;;;17.26;100.00;99348.03;5199500;28;20511;-49
2023/08/01 04:29:29;;;;;;;4.82;3.28;;;17.10;99.90;;;17.24;100.00;99356.88;5190068;28;20038;-50
2023/08/01 04:32:01;;;;;;;3.85;3.20;;;17.00;99.90;;;17.21;100.00;99351.63;5191079;28;20054;-49
2023/08/01 04:34:33;;;;;;;4.80;3.72;;;17.00;99.90;;;17.21;100.00;99351.63;5199604;28;20047;-50
2023/08/01 04:37:06;;;;;;;4.25;3.25;;;17.00;99.90;;;17.21;100.00;99362.16;5195354;28;20046;-49
2023/08/01 04:39:38;;;;;;;4.13;3.28;;;17.00;99.90;;;17.22;100.00;99361.28;5199125;28;20052;-49
2023/08/01 04:42:12;;;;;;;4.47;3.40;;;17.00;99.90;;;17.22;100.00;99369.19;5198563;28;20140;-50
2023/08/01 04:44:45;;;;;;;4.35;3.17;;;17.00;99.90;;;17.22;100.00;99366.56;5198606;28;20052;-49
2023/08/01 04:47:17;;;;;;;5.40;3.63;;;17.00;99.90;;;17.21;100.00;99370.06;5196355;28;20049;-49
2023/08/01 04:49:49;;;;;;;5.88;4.32;;;17.00;99.90;;;17.19;100.00;99374.50;5202780;28;20049;-49
2023/08/01 04:52:22;;;;;;;6.70;4.18;;;17.00;99.90;;;17.15;100.00;99375.41;5195884;28;20057;-49
2023/08/01 04:54:54;;;;;;;6.30;3.42;;;17.00;99.90;;;17.16;100.00;99378.06;5195699;28;20050;-49
2023/08/01 04:57:28;;;;;;;6.82;3.30;;;17.00;99.90;;;17.14;100.00;99368.41;5195336;28;20041;-49
2023/08/01 05:00:00;;;;;;;3.75;2.75;;;16.90;99.90;;;17.16;100.00;99371.91;5197228;28;20057;-50
2023/08/01 05:02:33;;;;;;;8.95;2.85;;;17.00;99.90;;;17.18;100.00;99376.25;5201708;28;20049;-49
2023/08/01 05:05:06;;;;;;;6.72;2.70;;;17.00;99.90;;;17.19;100.00;99369.22;5194232;28;20056;-49
2023/08/01 05:07:39;;;;;;;4.80;2.55;;;17.00;99.90;;;17.21;100.00;99372.69;5193807;28;20049;-49
2023/08/01 05:10:11;;;;;;;5.68;2.75;;;17.00;99.90;;;17.21;100.00;99380.59;5199253;28;20057;-49
2023/08/01 05:12:45;;;;;;;4.63;2.55;;;17.00;99.90;;;17.22;100.00;99387.63;5203520;28;20506;-50
2023/08/01 05:15:18;;;;;;;5.30;2.40;;;17.00;99.90;;;17.23;100.00;99392.00;5202448;28;20080;-49
2023/08/01 05:17:50;;;;;;;6.55;2.92;;;17.00;99.90;;;17.24;100.00;99401.63;5201289;28;20096;-50
2023/08/01 05:20:22;;;;;;;4.32;2.40;;;17.00;99.90;;;17.25;100.00;99400.72;5201352;28;20049;-49
2023/08/01 05:22:55;;;;;;;5.38;2.28;;;17.00;99.90;;;17.29;100.00;99390.16;5194609;28;20045;-49
2023/08/01 05:25:27;;;;;;;4.00;2.13;;;17.10;99.90;;;17.34;100.00;99397.94;5188418;28;20506;-49
2023/08/01 05:28:01;;;;;;;3.47;2.15;;;17.10;99.90;;;17.35;100.00;99397.97;5190219;28;20415;-50
2023/08/01 05:30:34;;;;;;;3.65;2.00;;;17.10;99.90;;;17.39;100.00;99385.59;5195877;28;20041;-49
2023/08/01 05:33:09;;;;;;;4.47;2.22;;;17.10;99.90;;;17.43;100.00;99379.41;5198139;28;20948;-50
2023/08/01 05:35:42;;;;;;;3.08;1.85;;;17.20;99.90;;;17.48;100.00;99382.84;5193093;28;20056;-50
2023/08/01 05:38:14;;;;;;;4.15;2.30;;;17.20;99.90;;;17.53;100.00;99378.34;5192486;28;20050;-50
2023/08/01 05:40:49;;;;;;;3.53;2.03;;;17.20;99.90;;;17.60;100.00;99394.91;5196698;28;20045;-50
2023/08/01 05:43:23;;;;;;;4.45;2.30;;;17.30;99.90;;;17.63;100.00;99411.56;5188688;28;20042;-49
2023/08/01 05:45:56;;;;;;;3.88;2.13;;;17.30;99.90;;;17.64;100.00;99413.31;5190426;28;20046;-50
2023/08/01 05:48:28;;;;;;;3.78;2.20;;;17.40;99.90;;;17.63;100.00;99422.09;5201784;28;20033;-50
2023/08/01 05:51:03;;;;;;;3.13;2.10;;;17.40;99.90;;;17.59;100.00;99419.53;5202095;28;20056;-49
2023/08/01 05:53:36;;;;;;;6.43;2.40;;;17.30;99.90;;;17.51;100.00;99427.56;5202130;28;20065;-49
2023/08/01 05:56:08;;;;;;;4.85;2.30;;;17.30;99.90;;;17.47;100.00;99435.53;5201131;28;20054;-49
2023/08/01 05:58:42;;;;;;;5.13;2.50;;;17.20;99.90;;;17.40;100.00;99440.00;5201683;28;20529;-49
2023/08/01 06:01:16;;;;;;;5.88;2.38;;;17.10;99.90;;;17.39;100.00;99438.28;5201376;28;20503;-50
2023/08/01 06:03:48;;;;;;;6.13;2.47;;;17.20;99.90;;;17.36;100.00;99441.81;5202101;28;20469;-48
2023/08/01 06:06:21;;;;;;;5.45;2.55;;;17.10;99.90;;;17.35;100.00;99441.88;5201436;28;20060;-48
2023/08/01 06:08:53;;;;;;;6.65;2.53;;;17.10;99.90;;;17.32;100.00;99450.66;5201228;28;20044;-48
2023/08/01 06:11:26;;;;;;;5.28;2.33;;;17.10;99.90;;;17.32;100.00;99449.78;5201204;28;20057;-48
2023/08/01 06:14:00;;;;;;;6.20;2.58;;;17.10;99.90;;;17.33;100.00;99456.78;5201435;28;20049;-49
2023/08/01 06:16:32;;;;;;;4.28;2.10;;;17.10;99.90;;;17.38;100.00;99452.34;5202112;28;20052;-48
2023/08/01 06:19:05;;;;;;;3.70;2.13;;;17.10;99.90;;;17.48;100.00;99446.06;5201029;28;20049;-48
2023/08/01 06:21:37;;;;;;;5.65;2.17;;;17.20;99.90;;;17.59;100.00;99446.75;5201890;28;20118;-49
2023/08/01 06:24:10;;;;;;;3.30;2.25;;;17.30;99.90;;;17.70;100.00;99451.00;5201428;28;20049;-48
2023/08/01 06:26:43;;;;;;;5.13;1.98;;;17.40;99.90;;;17.78;100.00;99450.00;5201823;28;20562;-48
2023/08/01 06:29:16;;;;;;;4.22;2.30;;;17.40;99.90;;;17.90;100.00;99454.22;5200421;28;20128;-49
2023/08/01 06:31:49;;;;;;;4.50;2.00;;;17.50;99.90;;;17.98;100.00;99439.13;5201308;28;20388;-49
2023/08/01 06:34:21;;;;;;;3.70;1.92;;;17.60;99.90;;;18.04;100.00;99444.31;5201120;28;20049;-49
2023/08/01 06:36:54;;;;;;;4.47;2.35;;;17.70;99.90;;;18.23;100.00;99444.88;5201888;28;20041;-49
2023/08/01 06:39:26;;;;;;;4.47;2.17;;;17.80;99.90;;;18.51;100.00;99445.22;5201033;28;20049;-49
2023/08/01 06:41:59;;;;;;;4.75;2.78;;;18.00;99.90;;;18.76;100.00;99443.00;5201298;28;20049;-49
2023/08/01 06:44:32;;;;;;;4.25;2.38;;;18.20;99.90;;;19.11;100.00;99442.31;5193713;28;20045;-49
2023/08/01 06:47:05;;;;;;;4.35;2.30;;;18.50;99.90;;;19.40;100.00;99441.66;5201033;28;20531;-49
2023/08/01 06:49:38;;;;;;;6.03;2.58;;;18.80;99.90;;;19.65;100.00;99439.34;5201151;28;20125;-50
2023/08/01 06:52:10;;;;;;;4.45;1.98;;;19.00;99.90;;;19.82;100.00;99440.72;5199427;28;20521;-49
2023/08/01 06:54:43;;;;;;;3.08;1.83;;;19.20;99.90;;;19.92;100.00;99437.81;5201305;28;20510;-49
2023/08/01 06:57:18;;;;;;;3.50;2.00;;;19.30;99.90;;;20.00;100.00;99442.91;5200393;28;20111;-42
2023/08/01 06:59:53;;;;;;;3.28;1.73;;;19.50;99.90;;;20.13;100.00;99439.03;5200571;28;20048;-48
2023/08/01 07:02:26;;;;;;;2.63;1.75;;;19.60;99.90;;;20.30;100.00;99455.38;5200538;28;20048;-48
2023/08/01 07:04:58;;;;;;;4.05;2.10;;;19.70;99.90;;;20.48;100.00;99450.53;5198992;28;20077;-49
2023/08/01 07:07:30;;;;;;;4.85;2.10;;;19.90;99.90;;;20.53;100.00;99446.81;5199334;28;20042;-48
2023/08/01 07:10:03;;;;;;;4.45;2.20;;;20.00;99.90;;;20.65;100.00;99450.94;5197058;28;20128;-48
2023/08/01 07:12:35;;;;;;;2.95;1.70;;;20.10;99.90;;;20.78;100.00;99441.72;5198023;28;20518;-48
2023/08/01 07:15:11;;;;;;;4.10;2.33;;;20.20;99.90;;;20.88;100.00;99457.38;5199944;28;20060;-49
2023/08/01 07:17:43;;;;;;;5.95;2.65;;;20.30;99.90;;;20.88;100.00;99457.38;5192684;28;20049;-48
2023/08/01 07:20:16;;;;;;;4.80;2.03;;;20.30;99.90;;;20.82;100.00;99459.28;5192716;28;20502;-49
2023/08/01 07:22:48;;;;;;;3.97;2.28;;;20.30;99.90;;;20.89;100.00;99465.28;5196796;28;20144;-49
2023/08/01 07:25:20;;;;;;;3.53;2.03;;;20.30;99.90;;;20.89;100.00;99473.22;5197868;28;20533;-48
2023/08/01 07:27:53;;;;;;;7.28;2.25;;;20.40;99.90;;;20.82;100.00;99467.22;5195453;28;20115;-48
2023/08/01 07:30:26;;;;;;;5.72;2.30;;;20.40;99.90;;;20.70;100.00;99469.34;5214626;28;20124;-49
2023/08/01 07:33:02;;;;;;;6.28;2.72;;;20.30;99.90;;;20.57;100.00;99466.16;5195253;28;20214;-48
2023/08/01 07:35:34;;;;;;;5.10;2.53;;;20.10;99.90;;;20.57;100.00;99474.09;5188162;28;20045;-48
2023/08/01 07:38:06;;;;;;;5.20;2.47;;;20.20;99.90;;;20.75;100.00;99468.31;5196420;28;20061;-48
2023/08/01 07:40:39;;;;;;;5.53;2.53;;;20.20;99.90;;;20.83;100.00;99476.03;5200418;28;20046;-49
2023/08/01 07:43:14;;;;;;;5.22;2.92;;;20.30;99.90;;;20.84;100.00;99470.69;5200173;28;20092;-49
2023/08/01 07:45:50;;;;;;;8.13;3.42;;;20.30;99.90;;;20.80;100.00;99469.06;5201033;28;20530;-49
2023/08/01 07:48:22;;;;;;;5.72;2.78;;;20.30;99.90;;;20.74;100.00;99474.53;5193809;28;20144;-49
2023/08/01 07:50:55;;;;;;;4.32;2.63;;;20.20;99.90;;;20.65;100.00;99477.41;5196624;28;20053;-48
2023/08/01 07:53:31;;;;;;;8.90;2.80;;;20.20;99.90;;;20.57;100.00;99484.69;5192897;28;20056;-48
2023/08/01 07:56:06;;;;;;;5.93;2.90;;;20.20;99.90;;;20.49;100.00;99482.25;5194993;28;20054;-49
2023/08/01 07:58:38;;;;;;;4.55;2.50;;;20.20;99.90;;;20.41;100.00;99493.88;5194792;28;20041;-49
2023/08/01 08:01:15;;;;;;;6.40;2.65;;;20.10;99.90;;;20.24;100.00;99484.63;5198082;28;20564;-49
2023/08/01 08:03:48;;;;;;;6.90;2.95;;;19.90;99.90;;;20.04;100.00;99494.84;5190363;28;20053;-48
2023/08/01 08:06:21;;;;;;;6.97;2.80;;;19.70;99.90;;;19.89;100.00;99495.22;5195744;28;20049;-48
2023/08/01 08:08:56;;;;;;;5.70;2.60;;;19.60;99.90;;;19.77;100.00;99489.31;5193342;28;20070;-49
2023/08/01 08:11:31;;;;;;;6.63;2.47;;;19.50;99.90;;;19.70;100.00;99497.41;5198831;28;20041;-50
2023/08/01 08:14:04;;;;;;;5.32;2.80;;;19.30;99.90;;;19.88;100.00;99498.72;5197160;28;20391;-46
2023/08/01 08:16:37;;;;;;;7.35;2.65;;;19.40;99.90;;;20.35;100.00;99491.44;5195693;28;20091;-46
2023/08/01 08:19:10;;;;;;;6.15;2.67;;;19.70;99.90;;;20.96;100.00;99488.03;5196370;28;20041;-46
2023/08/01 08:21:42;;;;;;;4.85;2.47;;;20.00;99.90;;;21.24;100.00;99498.69;5209632;28;20400;-45
2023/08/01 08:24:15;;;;;;;5.05;2.40;;;20.30;99.90;;;21.60;100.00;99498.53;5203888;28;20056;-44
2023/08/01 08:26:47;;;;;;;7.35;3.05;;;20.50;99.90;;;22.07;100.00;99494.38;5204058;28;20052;-45
2023/08/01 08:29:22;;;;;;;5.88;2.50;;;20.90;99.90;;;22.25;100.00;99495.59;5202830;28;20049;-45
2023/08/01 08:31:56;;;;;;;6.72;2.92;;;21.10;99.90;;;22.06;100.00;99507.69;5203418;28;20053;-45
2023/08/01 08:34:29;;;;;;;5.30;2.75;;;21.10;99.90;;;21.72;100.00;99506.13;5203797;28;20057;-44
2023/08/01 08:37:01;;;;;;;6.47;3.03;;;20.90;99.90;;;21.48;100.00;99506.88;5203961;28;20049;-48
2023/08/01 08:39:33;;;;;;;6.53;2.53;;;20.80;99.90;;;21.25;100.00;99505.72;5203133;28;20050;-49
2023/08/01 08:42:07;;;;;;;10.18;2.83;;;20.70;99.90;;;21.04;100.00;99507.22;5203912;28;20557;-48
2023/08/01 08:44:44;;;;;;;5.85;2.50;;;20.50;99.90;;;20.89;100.00;99506.78;5195267;28;20565;-49
2023/08/01 08:47:26;;;;;;;6.43;2.38;;;20.40;99.90;;;20.87;100.00;99509.47;5199244;28;20045;-48
2023/08/01 08:49:59;;;;;;;8.75;2.95;;;20.40;99.90;;;20.85;100.00;99500.69;5197002;28;20091;-48
2023/08/01 08:52:31;;;;;;;6.30;2.50;;;20.30;99.90;;;20.78;100.00;99504.41;5203534;28;20046;-48
2023/08/01 08:55:04;;;;;;;6.30;2.50;;;20.30;99.90;;;20.76;100.00;99501.81;5203556;28;20053;-48
2023/08/01 08:57:40;;;;;;;4.85;2.72;;;20.20;99.90;;;20.93;100.00;99501.38;5202818;28;20049;-48
2023/08/01 09:00:14;;;;;;;5.18;2.30;;;20.40;99.90;;;21.15;100.00;99498.97;5203502;28;20514;-50
2023/08/01 09:02:48;;;;;;;5.10;2.55;;;20.50;99.90;;;21.27;100.00;99506.56;5203370;28;20112;-49
2023/08/01 09:05:22;;;;;;;4.43;2.33;;;20.60;99.90;;;21.38;100.00;99507.13;5203054;28;20054;-48
2023/08/01 09:07:58;;;;;;;4.55;1.90;;;20.70;99.90;;;21.51;100.00;99506.75;5202647;28;20060;-49
2023/08/01 09:10:32;;;;;;;3.55;1.75;;;20.80;99.90;;;21.53;100.00;99515.56;5202831;28;20049;-48
2023/08/01 09:13:04;;;;;;;3.42;1.95;;;20.80;99.90;;;21.38;100.00;99512.44;5203154;28;20079;-48
2023/08/01 09:15:38;;;;;;;5.03;1.92;;;20.80;99.90;;;21.27;100.00;99518.94;5203080;28;20049;-48
2023/08/01 09:18:12;;;;;;;3.88;1.90;;;20.70;99.90;;;21.27;100.00;99521.59;5202709;28;20490;-48
2023/08/01 09:20:46;;;;;;;4.32;2.00;;;20.70;99.90;;;21.23;100.00;99518.16;5203086;28;20049;-48
2023/08/01 09:23:21;;;;;;;;;;;20.70;99.90;;;21.22;100.00;99520.84;5203329;28;20049;-48
2023/08/01 09:25:53;;;;;;;4.60;2.15;;;20.70;99.90;;;21.27;100.00;99525.13;5203326;28;19925;-48
2023/08/01 09:28:26;;;;;;;3.85;1.80;;;20.70;99.90;;;21.25;100.00;99526.91;5201040;28;20380;-49
2023/08/01 09:30:59;;;;;;;4.50;1.52;;;20.70;99.90;;;21.22;100.00;99523.50;5202692;28;20507;-48
2023/08/01 09:33:41;;;;;;;5.82;1.77;;;20.60;99.90;;;21.24;100.00;99525.19;5202310;28;20049;-49
2023/08/01 09:36:22;;;;;;;3.55;1.83;;;20.80;99.90;;;21.45;100.00;99526.38;5203761;28;20056;-48
2023/08/01 09:39:00;;;;;;;4.43;2.03;;;20.80;99.90;;;21.67;100.00;99534.56;5201937;28;20079;-48
2023/08/01 09:41:36;;;;;;;3.75;1.55;;;21.00;99.90;;;21.85;100.00;99539.31;5202055;28;20061;-48
2023/08/01 09:44:12;;;;;;;4.75;1.90;;;21.20;99.90;;;21.98;100.00;99528.31;5203882;28;20049;-49
2023/08/01 09:46:44;;;;;;;4.75;1.80;;;21.30;99.90;;;21.94;100.00;99543.44;5192235;28;20645;-48
2023/08/01 09:49:18;;;;;;;4.10;1.80;;;21.30;99.90;;;21.88;100.00;99533.88;5213949;28;20056;-48
2023/08/01 09:51:51;;;;;;;3.42;1.88;;;21.30;99.90;;;21.87;100.00;99531.28;5187623;28;20046;-48
2023/08/01 09:54:24;;;;;;;4.07;1.80;;;21.30;99.90;;;22.03;100.00;99534.31;5201911;28;20433;-49
2023/08/01 09:56:57;;;;;;;4.35;2.08;;;21.40;99.90;;;22.45;100.00;99527.66;5199437;28;20045;-49
2023/08/01 09:59:29;;;;;;;7.10;2.20;;;21.70;99.90;;;22.74;97.59;99536.38;5183903;28;20112;-49
2023/08/01 10:02:02;;;;;;;3.63;1.88;;;21.90;99.90;;;22.84;96.30;99535.16;5187397;28;20056;-48
2023/08/01 10:04:40;;;;;;;3.92;2.15;;;22.10;99.90;;;23.22;97.21;99533.81;5191696;28;20061;-49
2023/08/01 10:07:15;;;;;;;3.05;1.65;;;22.40;99.90;;;23.51;96.29;99527.38;5193695;28;20057;-49
2023/08/01 10:09:48;;;;;;;4.65;2.00;;;22.70;99.90;;;23.57;94.31;99531.63;5193924;28;20388;-49
2023/08/01 10:12:21;;;;;;;4.22;1.80;;;22.80;99.90;;;23.49;92.56;99533.72;5195348;28;20380;-49
2023/08/01 10:14:54;;;;;;;3.85;1.67;;;22.80;99.90;;;23.22;93.46;99527.63;5202129;28;20220;-48
2023/08/01 10:17:30;;;;;;;5.13;1.90;;;22.60;99.90;;;22.79;94.06;99529.13;5193981;28;20140;-47
2023/08/01 10:20:05;;;;;;;3.45;1.95;;;22.30;99.90;;;22.65;97.61;99523.44;5201562;28;20053;-49
2023/08/01 10:22:39;;;;;;;3.70;1.90;;;22.20;99.90;;;22.62;100.00;99516.44;5201281;28;20048;-49
2023/08/01 10:25:12;;;;;;;4.00;2.15;;;22.10;99.90;;;22.71;100.00;99525.88;5201635;28;20041;-48
2023/08/01 10:27:45;;;;;;;3.83;2.15;;;22.10;99.90;;;22.87;100.00;99512.94;5200465;28;20057;-49
2023/08/01 10:30:27;;;;;;;5.55;1.98;;;22.20;99.90;;;22.98;99.47;99519.63;5200790;28;20048;-49
2023/08/01 10:33:01;;;;;;;5.10;2.45;;;22.40;99.90;;;22.94;98.50;99517.97;5188713;28;20141;-48
2023/08/01 10:35:40;;;;;;;3.60;1.70;;;22.30;99.90;;;22.79;98.08;99522.97;5185061;28;20038;-48
2023/08/01 10:38:13;;;;;;;4.32;2.20;;;22.20;99.90;;;22.63;98.32;99514.69;5200861;28;20061;-49